createdAt,value
2018-11-03T00:00:25.571Z,80.97
2018-11-03T00:02:55.273Z,81.85
2018-11-03T00:05:24.937Z,81.40
2018-11-03T00:07:54.654Z,82.02
2018-11-03T00:10:24.310Z,82.03
2018-11-03T00:12:53.987Z,82.35
2018-11-03T00:15:23.659Z,81.51
2018-11-03T00:17:53.313Z,81.34
2018-11-03T00:20:22.968Z,81.57
2018-11-03T00:22:52.775Z,81.43
2018-11-03T00:25:22.428Z,81.45
2018-11-03T00:27:52.134Z,81.53
2018-11-03T00:30:21.813Z,81.58
2018-11-03T00:32:51.456Z,81.69
2018-11-03T00:35:21.164Z,81.31
2018-11-03T00:37:50.830Z,81.18
2018-11-03T00:40:20.501Z,80.76
2018-11-03T00:42:50.236Z,80.81
2018-11-03T00:45:19.901Z,80.99
2018-11-03T00:47:49.588Z,80.70
2018-11-03T00:50:19.284Z,81.85
2018-11-03T00:52:48.957Z,81.92
2018-11-03T00:55:18.638Z,82.36
2018-11-03T00:57:48.322Z,82.01
2018-11-03T01:00:18.952Z,81.96
2018-11-03T01:02:49.737Z,82.06
2018-11-03T01:05:19.400Z,81.69
2018-11-03T01:07:49.140Z,81.83
2018-11-03T01:10:18.882Z,82.55
2018-11-03T01:12:48.536Z,81.66
2018-11-03T01:15:18.712Z,82.05
2018-11-03T01:17:48.348Z,82.10
2018-11-03T01:20:18.539Z,82.03
2018-11-03T01:22:48.219Z,82.26
2018-11-03T01:25:17.908Z,81.80
2018-11-03T01:27:47.674Z,81.52
2018-11-03T01:30:17.762Z,81.72
2018-11-03T01:32:47.456Z,81.94
2018-11-03T01:35:17.137Z,82.09
2018-11-03T01:37:46.785Z,82.48
2018-11-03T01:40:16.482Z,82.05
2018-11-03T01:42:46.133Z,82.12
2018-11-03T01:45:15.833Z,83.25
2018-11-03T01:47:45.539Z,82.91
2018-11-03T01:50:15.214Z,82.85
2018-11-03T01:52:44.877Z,83.64
2018-11-03T01:55:14.607Z,82.85
2018-11-03T01:57:44.228Z,82.72
2018-11-03T02:00:13.931Z,82.83
2018-11-03T02:02:43.625Z,82.81
2018-11-03T02:05:13.296Z,82.16
2018-11-03T02:07:42.972Z,82.19
2018-11-03T02:10:13.068Z,82.36
2018-11-03T02:12:42.860Z,82.37
2018-11-03T02:15:12.959Z,81.82
2018-11-03T02:17:42.715Z,81.91
2018-11-03T02:20:12.613Z,81.95
2018-11-03T02:22:42.317Z,81.61
2018-11-03T02:25:12.029Z,81.37
2018-11-03T02:27:42.161Z,82.12
2018-11-03T02:30:12.628Z,81.98
2018-11-03T02:32:42.396Z,82.00
2018-11-03T02:35:12.470Z,81.76
2018-11-03T02:37:42.333Z,82.26
2018-11-03T02:40:12.964Z,81.54
2018-11-03T02:42:43.187Z,81.66
2018-11-03T02:45:12.993Z,81.73
2018-11-03T02:47:42.894Z,82.61
2018-11-03T02:50:15.208Z,82.07
2018-11-03T02:52:44.877Z,81.74
2018-11-03T02:55:15.472Z,81.98
2018-11-03T02:57:45.132Z,82.54
2018-11-03T03:00:14.845Z,82.32
2018-11-03T03:02:44.543Z,82.38
2018-11-03T03:05:14.201Z,82.23
2018-11-03T03:07:43.875Z,82.27
2018-11-03T03:10:13.731Z,81.53
2018-11-03T03:12:43.382Z,81.51
2018-11-03T03:15:13.753Z,81.71
2018-11-03T03:17:43.940Z,81.95
2018-11-03T03:20:13.709Z,82.02
2018-11-03T03:22:43.376Z,82.20
2018-11-03T03:25:13.152Z,82.03
2018-11-03T03:27:42.886Z,82.41
2018-11-03T03:30:12.750Z,81.93
2018-11-03T03:32:42.500Z,81.72
2018-11-03T03:35:12.185Z,82.09
2018-11-03T03:37:41.828Z,81.84
2018-11-03T03:40:11.843Z,81.95
2018-11-03T03:42:41.481Z,82.04
2018-11-03T03:45:11.649Z,82.26
2018-11-03T03:47:41.300Z,82.13
2018-11-03T03:50:11.684Z,81.46
2018-11-03T03:52:41.330Z,81.99
2018-11-03T03:55:11.099Z,82.14
2018-11-03T03:57:40.759Z,81.71
2018-11-03T04:00:11.860Z,82.10
2018-11-03T04:02:41.851Z,81.33
2018-11-03T04:05:11.575Z,81.34
2018-11-03T04:07:41.236Z,81.62
2018-11-03T04:10:11.140Z,81.98
2018-11-03T04:12:41.014Z,81.78
2018-11-03T04:15:10.740Z,81.90
2018-11-03T04:17:40.433Z,82.80
2018-11-03T04:20:10.138Z,82.56
2018-11-03T04:22:39.794Z,82.03
2018-11-03T04:25:09.532Z,82.41
2018-11-03T04:27:39.250Z,82.41
2018-11-03T04:30:12.019Z,82.14
2018-11-03T04:32:42.095Z,82.18
2018-11-03T04:35:12.260Z,82.42
2018-11-03T04:37:41.932Z,82.39
2018-11-03T04:40:12.958Z,82.22
2018-11-03T04:42:42.898Z,82.20
2018-11-03T04:45:13.173Z,83.12
2018-11-03T04:47:42.874Z,82.83
2018-11-03T04:50:12.539Z,82.88
2018-11-03T04:52:42.261Z,82.94
2018-11-03T04:55:12.042Z,83.40
2018-11-03T04:57:41.591Z,83.54
2018-11-03T05:00:11.841Z,82.82
2018-11-03T05:02:41.500Z,83.53
2018-11-03T05:05:11.216Z,83.37
2018-11-03T05:07:40.891Z,84.11
2018-11-03T05:10:10.597Z,83.60
2018-11-03T05:12:40.281Z,83.73
2018-11-03T05:15:09.948Z,83.86
2018-11-03T05:17:39.589Z,83.64
2018-11-03T05:20:09.379Z,84.32
2018-11-03T05:22:39.036Z,85.30
2018-11-03T05:25:08.730Z,83.98
2018-11-03T05:27:38.441Z,85.40
2018-11-03T05:30:08.617Z,84.83
2018-11-03T05:32:38.492Z,85.03
2018-11-03T05:35:08.156Z,84.09
2018-11-03T05:37:37.812Z,84.31
2018-11-03T05:40:07.579Z,84.29
2018-11-03T05:42:37.233Z,84.75
2018-11-03T05:45:06.983Z,84.74
2018-11-03T05:47:36.684Z,85.14
2018-11-03T05:50:07.643Z,85.70
2018-11-03T05:52:37.424Z,85.21
2018-11-03T05:55:08.159Z,83.68
2018-11-03T05:57:37.853Z,84.15
2018-11-03T06:00:09.361Z,83.88
2018-11-03T06:02:39.155Z,84.19
2018-11-03T06:05:08.848Z,84.76
2018-11-03T06:07:38.514Z,84.79
2018-11-03T06:10:08.899Z,85.24
2018-11-03T06:12:38.825Z,85.17
2018-11-03T06:15:08.574Z,85.19
2018-11-03T06:17:38.224Z,84.83
2018-11-03T06:20:08.048Z,85.60
2018-11-03T06:22:37.903Z,85.53
2018-11-03T06:25:09.081Z,85.44
2018-11-03T06:27:39.240Z,85.49
2018-11-03T06:30:10.554Z,86.14
2018-11-03T06:32:40.508Z,86.33
2018-11-03T06:35:11.290Z,86.69
2018-11-03T06:37:40.908Z,86.90
2018-11-03T06:40:10.628Z,86.79
2018-11-03T06:42:40.317Z,86.82
2018-11-03T06:45:10.615Z,87.04
2018-11-03T06:47:40.336Z,86.65
2018-11-03T06:50:10.044Z,87.29
2018-11-03T06:52:39.717Z,86.68
2018-11-03T06:55:09.504Z,86.55
2018-11-03T06:57:39.166Z,87.00
2018-11-03T07:00:09.866Z,87.45
2018-11-03T07:02:39.585Z,87.75
2018-11-03T07:05:10.194Z,87.84
2018-11-03T07:07:40.116Z,87.45
2018-11-03T07:10:10.984Z,87.87
2018-11-03T07:12:41.157Z,87.38
2018-11-03T07:15:10.696Z,87.34
2018-11-03T07:17:40.370Z,86.98
2018-11-03T07:20:11.777Z,86.90
2018-11-03T07:22:41.712Z,87.04
2018-11-03T07:25:11.474Z,87.64
2018-11-03T07:27:41.163Z,87.07
2018-11-03T07:30:12.373Z,86.76
2018-11-03T07:32:42.076Z,86.80
2018-11-03T07:35:11.779Z,87.08
2018-11-03T07:37:41.486Z,86.35
2018-11-03T07:40:11.704Z,85.99
2018-11-03T07:42:41.548Z,86.29
2018-11-03T07:45:11.457Z,86.31
2018-11-03T07:47:41.317Z,86.71
2018-11-03T07:50:12.595Z,86.58
2018-11-03T07:52:42.832Z,86.45
2018-11-03T07:55:13.368Z,86.16
2018-11-03T07:57:43.103Z,85.99
2018-11-03T08:00:13.849Z,85.94
2018-11-03T08:02:43.552Z,85.55
2018-11-03T08:05:13.284Z,85.86
2018-11-03T08:07:43.049Z,86.49
2018-11-03T08:10:13.053Z,86.04
2018-11-03T08:12:42.810Z,85.89
2018-11-03T08:15:12.797Z,86.22
2018-11-03T08:17:42.548Z,86.35
2018-11-03T08:20:12.731Z,86.35
2018-11-03T08:22:42.470Z,85.66
2018-11-03T08:25:12.202Z,85.81
2018-11-03T08:27:41.925Z,85.70
2018-11-03T08:30:13.328Z,84.52
2018-11-03T08:32:43.330Z,85.00
2018-11-03T08:35:13.681Z,84.91
2018-11-03T08:37:49.844Z,84.59
2018-11-03T08:40:19.561Z,84.59
2018-11-03T08:42:49.317Z,84.09
2018-11-03T08:45:19.063Z,83.64
2018-11-03T08:47:48.788Z,83.50
2018-11-03T08:50:18.596Z,82.63
2018-11-03T08:52:48.419Z,83.05
2018-11-03T08:55:18.140Z,82.90
2018-11-03T08:57:47.897Z,81.83
2018-11-03T09:00:17.756Z,81.18
2018-11-03T09:02:47.356Z,80.26
2018-11-03T09:05:17.046Z,80.34
2018-11-03T09:07:46.768Z,80.30
2018-11-03T09:10:16.471Z,80.21
2018-11-03T09:12:46.211Z,78.87
2018-11-03T09:15:16.045Z,80.34
2018-11-03T09:17:45.892Z,80.97
2018-11-03T09:20:15.580Z,78.13
2018-11-03T09:22:45.382Z,78.91
2018-11-03T09:25:16.138Z,77.98
2018-11-03T09:27:46.086Z,77.57
2018-11-03T09:30:17.732Z,77.88
2018-11-03T09:32:47.456Z,76.73
2018-11-03T09:35:17.589Z,73.39
2018-11-03T09:37:47.387Z,73.71
2018-11-03T09:40:17.808Z,73.63
2018-11-03T09:42:48.424Z,72.98
2018-11-03T09:45:18.124Z,71.20
2018-11-03T09:47:47.875Z,70.73
2018-11-03T09:50:17.576Z,69.18
2018-11-03T09:52:47.302Z,69.87
2018-11-03T09:55:18.376Z,66.66
2018-11-03T09:57:48.124Z,66.50
2018-11-03T10:00:19.096Z,66.62
2018-11-03T10:02:48.814Z,66.43
2018-11-03T10:05:18.547Z,67.31
2018-11-03T10:07:48.292Z,65.30
2018-11-03T10:10:19.273Z,66.88
2018-11-03T10:12:49.012Z,65.76
2018-11-03T10:15:19.424Z,65.91
2018-11-03T10:17:49.137Z,63.73
2018-11-03T10:20:18.864Z,64.44
2018-11-03T10:22:48.742Z,63.39
2018-11-03T10:25:19.821Z,62.38
2018-11-03T10:27:49.874Z,59.84
2018-11-03T10:30:19.609Z,60.37
2018-11-03T10:32:49.309Z,59.62
2018-11-03T10:35:19.024Z,57.07
2018-11-03T10:37:48.773Z,58.18
2018-11-03T10:40:18.908Z,59.04
2018-11-03T10:42:48.623Z,57.23
2018-11-03T10:45:18.316Z,56.29
2018-11-03T10:47:48.029Z,55.63
2018-11-03T10:50:18.926Z,56.07
2018-11-03T10:52:49.018Z,56.27
2018-11-03T10:55:19.744Z,55.32
2018-11-03T10:57:49.476Z,55.75
2018-11-03T11:00:25.416Z,55.83
2018-11-03T11:03:00.578Z,54.53
2018-11-03T11:05:35.908Z,55.35
2018-11-03T11:09:13.733Z,56.56
2018-11-03T11:11:48.650Z,56.12
2018-11-03T11:14:19.013Z,57.10
2018-11-03T11:16:48.690Z,57.59
2018-11-03T11:19:18.362Z,59.17
2018-11-03T11:21:48.122Z,59.10
2018-11-03T11:24:18.005Z,60.76
2018-11-03T11:26:47.597Z,59.74
2018-11-03T11:29:17.271Z,59.33
2018-11-03T11:31:47.000Z,58.66
2018-11-03T11:34:16.666Z,58.34
2018-11-03T11:36:46.394Z,58.30
2018-11-03T11:39:16.077Z,59.30
2018-11-03T11:41:45.973Z,58.85
2018-11-03T11:44:15.662Z,58.65
2018-11-03T11:46:45.381Z,58.48
2018-11-03T11:49:15.146Z,58.35
2018-11-03T11:51:44.877Z,58.09
2018-11-03T11:54:14.679Z,57.97
2018-11-03T11:56:44.406Z,57.23
2018-11-03T11:59:14.108Z,55.98
2018-11-03T12:01:43.862Z,56.97
2018-11-03T12:04:13.634Z,58.71
2018-11-03T12:06:43.346Z,56.66
2018-11-03T12:09:13.028Z,56.45
2018-11-03T12:11:42.785Z,57.43
2018-11-03T12:14:12.558Z,55.91
2018-11-03T12:16:42.307Z,54.96
2018-11-03T12:19:11.994Z,55.18
2018-11-03T12:21:41.748Z,55.69
2018-11-03T12:24:11.374Z,55.93
2018-11-03T12:26:41.163Z,57.07
2018-11-03T12:29:10.848Z,54.61
2018-11-03T12:31:40.569Z,54.79
2018-11-03T12:34:10.232Z,52.83
2018-11-03T12:36:39.887Z,53.50
2018-11-03T12:39:10.097Z,54.01
2018-11-03T12:41:39.785Z,53.82
2018-11-03T12:44:09.493Z,55.57
2018-11-03T12:46:39.180Z,54.91
2018-11-03T12:49:08.882Z,54.16
2018-11-03T12:51:38.534Z,53.66
2018-11-03T12:54:08.228Z,53.88
2018-11-03T12:56:37.883Z,54.07
2018-11-03T12:59:07.622Z,55.70
2018-11-03T13:01:37.260Z,53.74
2018-11-03T13:04:06.960Z,54.32
2018-11-03T13:06:36.653Z,54.14
2018-11-03T13:09:08.812Z,55.21
2018-11-03T13:11:38.508Z,56.31
2018-11-03T13:14:11.437Z,54.45
2018-11-03T13:16:41.088Z,53.39
2018-11-03T13:19:10.774Z,54.41
2018-11-03T13:21:40.417Z,54.49
2018-11-03T13:24:10.126Z,53.52
2018-11-03T13:26:39.818Z,53.20
2018-11-03T13:29:09.940Z,54.67
2018-11-03T13:31:39.611Z,52.80
2018-11-03T13:34:09.298Z,54.34
2018-11-03T13:36:39.211Z,51.65
2018-11-03T13:39:09.868Z,52.81
2018-11-03T13:41:39.547Z,52.92
2018-11-03T13:44:09.288Z,51.95
2018-11-03T13:46:38.983Z,51.22
2018-11-03T13:49:08.656Z,52.05
2018-11-03T13:51:38.309Z,51.22
2018-11-03T13:54:07.986Z,51.01
2018-11-03T13:56:37.787Z,52.15
2018-11-03T13:59:07.660Z,51.15
2018-11-03T14:01:37.419Z,51.01
2018-11-03T14:04:07.092Z,50.82
2018-11-03T14:06:36.768Z,51.06
2018-11-03T14:09:07.849Z,50.83
2018-11-03T14:11:37.512Z,51.10
2018-11-03T14:14:07.236Z,53.46
2018-11-03T14:16:36.956Z,51.63
2018-11-03T14:19:06.701Z,51.98
2018-11-03T14:21:36.367Z,52.15
2018-11-03T14:24:06.380Z,52.12
2018-11-03T14:26:36.112Z,52.49
2018-11-03T14:29:06.204Z,52.98
2018-11-03T14:31:35.813Z,52.87
2018-11-03T14:34:05.810Z,52.96
2018-11-03T14:36:35.481Z,52.42
2018-11-03T14:39:06.665Z,52.21
2018-11-03T14:41:36.325Z,52.40
2018-11-03T14:44:06.249Z,53.31
2018-11-03T14:46:35.956Z,53.10
2018-11-03T14:49:05.816Z,53.03
2018-11-03T14:51:35.512Z,53.73
2018-11-03T14:54:05.278Z,53.05
2018-11-03T14:56:35.014Z,53.63
2018-11-03T14:59:04.728Z,53.83
2018-11-03T15:01:34.380Z,54.39
2018-11-03T15:04:04.101Z,54.16
2018-11-03T15:06:33.772Z,54.48
2018-11-03T15:09:03.603Z,55.28
2018-11-03T15:11:33.256Z,57.07
2018-11-03T15:14:03.134Z,57.83
2018-11-03T15:16:32.698Z,59.47
2018-11-03T15:19:02.387Z,60.10
2018-11-03T15:21:32.051Z,60.78
2018-11-03T15:24:01.760Z,60.07
2018-11-03T15:26:31.450Z,60.77
2018-11-03T15:29:01.151Z,61.25
2018-11-03T15:31:30.845Z,62.60
2018-11-03T15:34:00.523Z,62.18
2018-11-03T15:36:30.185Z,62.85
2018-11-03T15:38:59.861Z,63.26
2018-11-03T15:41:29.558Z,63.42
2018-11-03T15:43:59.261Z,63.27
2018-11-03T15:46:28.944Z,64.23
2018-11-03T15:48:58.680Z,63.92
2018-11-03T15:51:28.324Z,64.59
2018-11-03T15:53:58.004Z,65.48
2018-11-03T15:56:27.668Z,65.60
2018-11-03T15:58:57.336Z,65.71
2018-11-03T16:01:27.064Z,65.92
2018-11-03T16:03:56.756Z,66.84
2018-11-03T16:06:26.616Z,66.93
2018-11-03T16:08:56.302Z,67.03
2018-11-03T16:11:25.984Z,67.36
2018-11-03T16:13:55.668Z,67.82
2018-11-03T16:16:25.366Z,67.43
2018-11-03T16:18:55.052Z,67.95
2018-11-03T16:21:24.720Z,67.66
2018-11-03T16:23:54.424Z,67.91
2018-11-03T16:26:24.044Z,68.26
2018-11-03T16:28:53.797Z,68.73
2018-11-03T16:31:23.437Z,68.85
2018-11-03T16:33:53.152Z,68.79
2018-11-03T16:36:22.813Z,69.44
2018-11-03T16:38:52.472Z,69.08
2018-11-03T16:41:22.134Z,69.28
2018-11-03T16:43:51.868Z,69.65
2018-11-03T16:46:21.524Z,70.07
2018-11-03T16:48:51.404Z,70.86
2018-11-03T16:51:21.096Z,71.60
2018-11-03T16:53:50.788Z,72.09
2018-11-03T16:56:20.470Z,72.29
2018-11-03T16:58:50.136Z,73.10
2018-11-03T17:01:19.830Z,73.33
2018-11-03T17:03:49.512Z,73.19
2018-11-03T17:06:19.187Z,74.33
2018-11-03T17:08:48.885Z,73.74
2018-11-03T17:11:18.532Z,74.13
2018-11-03T17:13:48.208Z,74.33
2018-11-03T17:16:17.853Z,75.02
2018-11-03T17:18:47.580Z,74.56
2018-11-03T17:21:17.229Z,75.18
2018-11-03T17:23:46.931Z,74.93
2018-11-03T17:26:16.624Z,74.60
2018-11-03T17:28:46.337Z,74.82
2018-11-03T17:31:15.992Z,75.23
2018-11-03T17:33:45.706Z,75.92
2018-11-03T17:36:15.388Z,75.67
2018-11-03T17:38:45.108Z,76.05
2018-11-03T17:41:14.752Z,76.89
2018-11-03T17:43:44.432Z,76.62
2018-11-03T17:46:14.064Z,76.72
2018-11-03T17:48:43.812Z,77.00
2018-11-03T17:51:13.470Z,77.02
2018-11-03T17:53:43.181Z,77.83
2018-11-03T17:56:12.874Z,77.94
2018-11-03T17:58:42.568Z,78.29
2018-11-03T18:01:12.326Z,77.83
2018-11-03T18:03:42.121Z,78.15
2018-11-03T18:06:11.864Z,78.29
2018-11-03T18:08:41.539Z,78.10
2018-11-03T18:11:11.208Z,78.27
2018-11-03T18:13:40.940Z,78.38
2018-11-03T18:16:10.613Z,79.35
2018-11-03T18:18:40.415Z,79.33
2018-11-03T18:21:10.097Z,79.46
2018-11-03T18:23:40.370Z,79.44
2018-11-03T18:26:10.060Z,79.07
2018-11-03T18:28:39.796Z,79.70
2018-11-03T18:31:09.460Z,79.89
2018-11-03T18:33:39.211Z,80.15
2018-11-03T18:36:08.929Z,80.56
2018-11-03T18:38:38.688Z,80.75
2018-11-03T18:41:08.481Z,80.94
2018-11-03T18:43:38.181Z,81.00
2018-11-03T18:46:07.993Z,81.30
2018-11-03T18:48:37.726Z,81.00
2018-11-03T18:51:07.441Z,81.55
2018-11-03T18:53:37.168Z,81.04
2018-11-03T18:56:06.879Z,81.56
2018-11-03T18:58:36.596Z,81.61
2018-11-03T19:01:06.576Z,82.19
2018-11-03T19:03:36.274Z,82.58
2018-11-03T19:06:06.417Z,82.47
2018-11-03T19:08:36.539Z,82.88
2018-11-03T19:11:06.961Z,82.62
2018-11-03T19:13:36.785Z,83.10
2018-11-03T19:16:06.579Z,83.26
2018-11-03T19:18:36.353Z,82.85
2018-11-03T19:21:06.064Z,83.20
2018-11-03T19:23:35.789Z,83.70
2018-11-03T19:26:05.768Z,83.09
2018-11-03T19:28:35.513Z,83.47
2018-11-03T19:31:05.427Z,83.19
2018-11-03T19:33:35.128Z,83.21
2018-11-03T19:36:04.805Z,83.62
2018-11-03T19:38:34.504Z,84.11
2018-11-03T19:41:04.196Z,83.72
2018-11-03T19:43:33.909Z,83.55
2018-11-03T19:46:03.882Z,84.01
2018-11-03T19:48:33.595Z,84.01
2018-11-03T19:51:03.361Z,83.97
2018-11-03T19:53:33.057Z,84.17
2018-11-03T19:56:02.761Z,85.22
2018-11-03T19:58:39.045Z,84.18
2018-11-03T20:01:08.733Z,84.66
2018-11-03T20:03:38.474Z,84.07
2018-11-03T20:06:08.168Z,83.90
2018-11-03T20:08:37.888Z,83.53
2018-11-03T20:11:07.623Z,83.47
2018-11-03T20:13:37.302Z,83.62
2018-11-03T20:16:07.000Z,83.41
2018-11-03T20:18:36.710Z,83.04
2018-11-03T20:21:06.720Z,83.20
2018-11-03T20:23:36.384Z,83.70
2018-11-03T20:26:06.147Z,82.97
2018-11-03T20:28:36.162Z,83.09
2018-11-03T20:31:06.012Z,83.27
2018-11-03T20:33:35.702Z,82.62
2018-11-03T20:36:05.407Z,83.33
2018-11-03T20:38:35.111Z,82.60
2018-11-03T20:41:05.212Z,82.48
2018-11-03T20:43:34.977Z,83.53
2018-11-03T20:46:04.734Z,82.93
2018-11-03T20:48:34.473Z,82.88
2018-11-03T20:51:10.237Z,82.81
2018-11-03T20:53:40.506Z,82.80
2018-11-03T20:56:10.378Z,83.07
2018-11-03T20:58:40.120Z,82.90
2018-11-03T21:01:09.771Z,82.91
2018-11-03T21:03:39.452Z,82.87
2018-11-03T21:06:12.024Z,82.87
2018-11-03T21:08:41.375Z,82.59
2018-11-03T21:11:10.697Z,82.84
2018-11-03T21:13:40.074Z,82.92
2018-11-03T21:16:09.428Z,83.17
2018-11-03T21:18:38.836Z,83.26
2018-11-03T21:21:08.176Z,82.67
2018-11-03T21:23:37.616Z,83.76
2018-11-03T21:26:06.988Z,84.43
2018-11-03T21:28:36.357Z,85.16
2018-11-03T21:31:06.001Z,85.77
2018-11-03T21:33:35.360Z,85.74
2018-11-03T21:36:04.765Z,85.96
2018-11-03T21:38:34.184Z,86.33
2018-11-03T21:41:03.505Z,86.93
2018-11-03T21:43:33.184Z,86.71
2018-11-03T21:46:02.972Z,87.47
2018-11-03T21:48:32.590Z,87.65
2018-11-03T21:51:02.296Z,88.16
2018-11-03T21:53:32.004Z,88.00
2018-11-03T21:56:01.811Z,87.26
2018-11-03T21:58:31.414Z,88.06
2018-11-03T22:01:01.133Z,87.65
2018-11-03T22:03:31.167Z,88.22
2018-11-03T22:06:01.628Z,88.71
2018-11-03T22:08:31.048Z,88.38
2018-11-03T22:11:02.576Z,88.36
2018-11-03T22:13:32.064Z,88.54
2018-11-03T22:16:01.644Z,88.70
2018-11-03T22:18:31.440Z,88.24
2018-11-03T22:21:00.948Z,89.13
2018-11-03T22:23:30.393Z,89.13
2018-11-03T22:25:59.910Z,89.31
2018-11-03T22:28:29.385Z,89.20
2018-11-03T22:30:58.879Z,89.23
2018-11-03T22:33:28.389Z,89.57
2018-11-03T22:35:57.873Z,90.14
2018-11-03T22:38:27.366Z,89.90
2018-11-03T22:40:56.878Z,89.78
2018-11-03T22:43:26.511Z,90.40
2018-11-03T22:45:56.190Z,89.74
2018-11-03T22:48:25.879Z,90.48
2018-11-03T22:50:55.603Z,90.24
2018-11-03T22:53:25.265Z,89.82
2018-11-03T22:55:54.963Z,89.96
2018-11-03T22:58:24.624Z,90.48
2018-11-03T23:00:56.400Z,90.52
2018-11-03T23:03:26.769Z,91.16
2018-11-03T23:05:56.488Z,91.31
2018-11-03T23:08:26.174Z,91.14
2018-11-03T23:10:55.918Z,90.52
2018-11-03T23:13:25.615Z,90.55
2018-11-03T23:15:55.289Z,89.91
2018-11-03T23:18:24.965Z,89.63
2018-11-03T23:20:54.672Z,89.00
2018-11-03T23:23:24.355Z,89.16
2018-11-03T23:25:54.060Z,88.69
2018-11-03T23:28:23.721Z,87.75
2018-11-03T23:30:53.423Z,88.17
2018-11-03T23:33:23.147Z,88.60
2018-11-03T23:35:52.860Z,88.93
2018-11-03T23:38:22.533Z,88.35
2018-11-03T23:40:52.357Z,86.67
2018-11-03T23:43:22.192Z,86.90
2018-11-03T23:45:51.994Z,87.54
2018-11-03T23:48:21.734Z,87.15
2018-11-03T23:50:51.535Z,86.94
2018-11-03T23:53:21.324Z,87.21
2018-11-03T23:55:51.109Z,87.04
2018-11-03T23:58:20.940Z,86.13
